Time;durP1;ratioP1;P1;durP2;ratioP2;P2;SDS_P1;SDS_P2;PMS_P1;PMS_P2;Temp;Humidity;BMP_temperature;BMP_pressure;BME280_temperature;BME280_humidity;BME280_pressure;Samples;Min_cycle;Max_cycle;Signal;HPM_P1;HPM_P2
2020/12/15 00:01:22;;;;;;;5.53;3.70;;;8.20;99.90;;;;;;4945365;29;20031;-95
2020/12/15 00:03:49;;;;;;;4.18;3.20;;;8.10;99.90;;;;;;4931747;29;20039;-94
2020/12/15 00:06:16;;;;;;;6.32;3.45;;;8.10;99.90;;;;;;4946039;29;20047;-93
2020/12/15 00:08:41;;;;;;;5.93;3.38;;;8.10;99.90;;;;;;4933341;29;20031;-93
2020/12/15 00:11:07;;;;;;;7.72;3.42;;;8.10;99.90;;;;;;4961497;29;20107;-93
2020/12/15 00:13:33;;;;;;;8.65;3.72;;;8.10;99.90;;;;;;4948299;29;20031;-93
2020/12/15 00:16:00;;;;;;;6.25;3.55;;;8.00;99.90;;;;;;4960755;28;20031;-94
2020/12/15 00:18:26;;;;;;;5.78;3.35;;;8.00;99.90;;;;;;4979661;28;20011;-95
2020/12/15 00:20:52;;;;;;;5.28;3.65;;;8.00;99.90;;;;;;4962586;28;20045;-96
2020/12/15 00:23:20;;;;;;;5.90;3.58;;;7.80;99.90;;;;;;4962866;28;20011;-96
2020/12/15 00:25:47;;;;;;;4.78;3.60;;;7.80;99.90;;;;;;4947088;28;20026;-96
2020/12/15 00:28:14;;;;;;;10.00;4.15;;;7.70;99.90;;;;;;4962048;28;20031;-95
2020/12/15 00:30:40;;;;;;;5.88;3.83;;;7.70;99.90;;;;;;4978833;28;20091;-95
2020/12/15 00:33:08;;;;;;;5.57;3.88;;;7.60;99.90;;;;;;4961844;28;20046;-95
2020/12/15 00:35:37;;;;;;;7.03;4.10;;;7.60;99.90;;;;;;4945172;28;20058;-95
2020/12/15 00:38:06;;;;;;;7.55;3.67;;;7.50;99.90;;;;;;4968316;28;20042;-94
2020/12/15 00:40:31;;;;;;;6.50;4.03;;;7.50;99.90;;;;;;4945061;29;20035;-95
2020/12/15 00:42:57;;;;;;;7.75;3.47;;;7.50;99.90;;;;;;4944269;29;20027;-95
2020/12/15 00:45:23;;;;;;;6.05;3.20;;;7.50;99.90;;;;;;4932602;29;20442;-93
2020/12/15 00:47:51;;;;;;;5.25;3.30;;;7.40;99.90;;;;;;4943760;29;20060;-93
2020/12/15 00:50:20;;;;;;;7.25;4.45;;;7.40;99.90;;;;;;4943352;29;20113;-93
2020/12/15 00:52:47;;;;;;;7.43;3.90;;;7.40;99.90;;;;;;4942471;29;20029;-93
2020/12/15 00:55:12;;;;;;;8.88;3.90;;;7.40;99.90;;;;;;4941914;29;20058;-94
2020/12/15 00:57:38;;;;;;;5.00;3.35;;;7.40;99.90;;;;;;4942334;29;20024;-92
2020/12/15 01:00:10;;;;;;;4.43;3.67;;;7.30;99.90;;;;;;4942053;29;20023;-92
2020/12/15 01:02:35;;;;;;;4.72;3.33;;;7.30;99.90;;;;;;4942500;29;20058;-92
2020/12/15 01:05:02;;;;;;;8.25;4.25;;;7.30;99.90;;;;;;4926734;29;20028;-93
2020/12/15 01:07:29;;;;;;;6.78;4.22;;;7.30;99.90;;;;;;4947694;29;20019;-91
2020/12/15 01:09:57;;;;;;;9.00;3.95;;;7.20;99.90;;;;;;4961572;28;20019;-91
2020/12/15 01:12:23;;;;;;;7.25;3.78;;;7.30;99.90;;;;;;4925869;29;20100;-92
2020/12/15 01:14:49;;;;;;;7.07;3.90;;;7.20;99.90;;;;;;4931939;29;20465;-92
2020/12/15 01:17:15;;;;;;;6.85;4.82;;;7.20;99.90;;;;;;4909435;29;20051;-92
2020/12/15 01:19:41;;;;;;;6.60;3.92;;;7.20;99.90;;;;;;4906213;29;20127;-90
2020/12/15 01:22:09;;;;;;;5.55;4.03;;;7.20;99.90;;;;;;4905471;29;20044;-91
2020/12/15 01:24:35;;;;;;;6.05;3.88;;;7.20;99.90;;;;;;4904647;29;20020;-92
2020/12/15 01:27:01;;;;;;;9.07;4.03;;;7.20;99.90;;;;;;4910407;29;20047;-91
2020/12/15 01:29:26;;;;;;;6.13;3.53;;;7.10;99.90;;;;;;4904238;29;20032;-90
2020/12/15 01:31:54;;;;;;;7.43;4.82;;;7.20;99.90;;;;;;4905350;29;20115;-90
2020/12/15 01:34:21;;;;;;;5.68;3.72;;;7.20;99.90;;;;;;4926778;29;20092;-91
2020/12/15 01:36:47;;;;;;;8.50;4.60;;;7.10;99.90;;;;;;4903939;29;20032;-91
2020/12/15 01:39:13;;;;;;;7.50;4.72;;;7.10;99.90;;;;;;4907900;29;20056;-90
2020/12/15 01:41:39;;;;;;;6.10;4.50;;;7.20;99.90;;;;;;4904609;29;20024;-90
2020/12/15 01:44:06;;;;;;;10.88;5.80;;;7.20;99.90;;;;;;4923843;29;20376;-90
2020/12/15 01:46:38;;;;;;;7.18;4.50;;;7.10;99.90;;;;;;4943260;29;20127;-89
2020/12/15 01:49:04;;;;;;;8.27;4.75;;;7.10;99.90;;;;;;4943657;29;20063;-91
2020/12/15 01:51:35;;;;;;;7.90;4.93;;;7.10;99.90;;;;;;4938500;29;20055;-90
2020/12/15 01:54:04;;;;;;;10.23;5.20;;;7.10;99.90;;;;;;4900265;29;20443;-89
2020/12/15 01:56:32;;;;;;;6.13;4.35;;;7.10;99.90;;;;;;4900223;29;20443;-89
2020/12/15 01:59:03;;;;;;;10.13;4.82;;;7.10;99.90;;;;;;4916306;29;20044;-90
2020/12/15 02:01:29;;;;;;;7.00;4.43;;;7.10;99.90;;;;;;4885699;29;20033;-91
2020/12/15 02:03:55;;;;;;;7.10;5.20;;;7.10;99.90;;;;;;4883745;29;20474;-93
2020/12/15 02:06:25;;;;;;;6.18;4.55;;;7.20;99.90;;;;;;4903850;29;20036;-91
2020/12/15 02:08:51;;;;;;;5.20;4.35;;;7.10;99.90;;;;;;4887870;29;20041;-91
2020/12/15 02:11:24;;;;;;;7.93;4.88;;;7.10;99.90;;;;;;4892053;29;20055;-90
2020/12/15 02:13:51;;;;;;;6.03;4.80;;;7.10;99.90;;;;;;4898267;29;20037;-90
2020/12/15 02:16:22;;;;;;;7.40;4.68;;;7.00;99.90;;;;;;4871832;29;20132;-91
2020/12/15 02:18:48;;;;;;;9.60;5.60;;;7.10;99.90;;;;;;4866436;29;20029;-91
2020/12/15 02:21:13;;;;;;;9.10;5.22;;;7.10;99.90;;;;;;4851457;29;20369;-91
2020/12/15 02:23:42;;;;;;;9.60;5.80;;;7.10;99.90;;;;;;4895445;29;20079;-91
2020/12/15 02:26:09;;;;;;;7.45;5.22;;;7.10;99.90;;;;;;4936080;29;20110;-90
2020/12/15 02:28:40;;;;;;;8.18;5.75;;;7.10;99.90;;;;;;4922111;29;20038;-93
2020/12/15 02:31:05;;;;;;;8.55;5.40;;;7.10;99.90;;;;;;4909019;29;20035;-93
2020/12/15 02:33:34;;;;;;;6.38;4.80;;;7.10;99.90;;;;;;4925462;29;20070;-92
2020/12/15 02:36:00;;;;;;;7.97;5.25;;;7.10;99.90;;;;;;4921363;29;20479;-93
2020/12/15 02:38:28;;;;;;;11.23;5.20;;;7.10;99.90;;;;;;4912685;29;20016;-92
2020/12/15 02:40:55;;;;;;;8.18;5.50;;;7.10;99.90;;;;;;4939313;28;20020;-92
2020/12/15 02:43:21;;;;;;;9.52;5.10;;;7.10;99.90;;;;;;4953817;28;20036;-93
2020/12/15 02:45:47;;;;;;;8.32;5.60;;;7.10;99.90;;;;;;4958510;29;20077;-94
2020/12/15 02:48:13;;;;;;;9.18;5.13;;;7.10;99.90;;;;;;4929434;29;20465;-93
2020/12/15 02:50:39;;;;;;;12.18;5.97;;;7.10;99.90;;;;;;4925268;29;20036;-94
2020/12/15 02:53:05;;;;;;;9.80;5.40;;;7.10;99.90;;;;;;4944343;29;20413;-94
2020/12/15 02:55:31;;;;;;;7.00;4.80;;;7.10;99.90;;;;;;4930951;29;20103;-94
2020/12/15 02:58:02;;;;;;;11.02;5.80;;;7.10;99.90;;;;;;4931992;29;20031;-94
2020/12/15 03:00:29;;;;;;;;;;;7.10;99.90;;;;;;4966799;29;20139;-94
2020/12/15 03:02:58;;;;;;;7.95;5.43;;;7.10;99.90;;;;;;4980376;28;19906;-92
2020/12/15 03:05:26;;;;;;;8.88;5.00;;;7.10;99.90;;;;;;4947446;29;20027;-91
2020/12/15 03:07:52;;;;;;;8.10;5.05;;;7.10;99.90;;;;;;4949437;29;20031;-91
2020/12/15 03:10:18;;;;;;;6.30;5.10;;;7.10;99.90;;;;;;4967198;29;20058;-92
2020/12/15 03:12:44;;;;;;;7.68;5.28;;;7.10;99.90;;;;;;4953337;29;20024;-91
2020/12/15 03:15:10;;;;;;;7.78;5.75;;;7.10;99.90;;;;;;4957764;29;20091;-90
2020/12/15 03:17:35;;;;;;;8.38;5.47;;;7.10;99.90;;;;;;4954478;28;20110;-93
2020/12/15 03:20:01;;;;;;;8.48;5.30;;;7.10;99.90;;;;;;4959457;28;20019;-93
2020/12/15 03:22:28;;;;;;;7.55;5.55;;;7.10;99.90;;;;;;4963279;28;20023;-93
2020/12/15 03:24:55;;;;;;;10.70;5.22;;;7.10;99.90;;;;;;4963308;28;20034;-93
2020/12/15 03:27:25;;;;;;;10.13;5.70;;;7.10;99.90;;;;;;4963728;28;20031;-96
2020/12/15 03:29:51;;;;;;;9.52;5.80;;;7.10;99.90;;;;;;4961248;28;20019;-95
2020/12/15 03:32:16;;;;;;;8.35;5.90;;;7.10;99.90;;;;;;4959989;29;20027;-95
2020/12/15 04:11:11;;;;;;;8.77;5.35;;;7.20;99.90;;;;;;6003778;23;21489;31
2020/12/15 04:16:39;;;;;;;11.02;5.32;;;7.20;99.90;;;;;;4750680;26;20050;-89
2020/12/15 04:19:06;;;;;;;8.48;6.00;;;7.20;99.90;;;;;;4964880;28;20030;-87
2020/12/15 04:21:38;;;;;;;14.50;5.80;;;7.20;99.90;;;;;;4986043;28;20058;-88
2020/12/15 04:24:10;;;;;;;8.57;5.70;;;7.20;99.90;;;;;;4980475;28;20023;-87
2020/12/15 04:57:41;;;;;;;9.18;6.60;;;7.40;99.90;;;;;;5122621;23;20059;-92
2020/12/15 05:00:08;;;;;;;10.82;6.47;;;7.30;99.90;;;;;;4954287;29;20121;-91
2020/12/15 05:02:40;;;;;;;11.30;6.75;;;7.40;99.90;;;;;;4935212;29;20433;-91
2020/12/15 05:05:06;;;;;;;10.90;7.32;;;7.40;99.90;;;;;;4959735;29;20131;-94
2020/12/15 05:07:40;;;;;;;11.88;7.72;;;7.40;99.90;;;;;;4942694;29;20111;-94
2020/12/15 05:10:07;;;;;;;8.48;5.95;;;7.40;99.90;;;;;;4905251;29;20127;-95
2020/12/15 05:12:34;;;;;;;9.55;6.47;;;7.40;99.90;;;;;;4925419;29;20225;-95
2020/12/15 05:15:01;;;;;;;9.50;6.47;;;7.40;99.90;;;;;;4936032;29;20701;-95
2020/12/15 05:17:32;;;;;;;10.45;7.50;;;7.40;99.90;;;;;;4938866;29;20036;-95
2020/12/15 05:20:01;;;;;;;9.18;7.50;;;7.40;99.90;;;;;;4921051;29;20064;-93
2020/12/15 05:22:47;;;;;;;11.48;7.68;;;7.50;99.90;;;;;;4921164;29;20481;-93
2020/12/15 05:25:34;;;;;;;9.75;6.57;;;7.40;99.90;;;;;;4909926;29;20474;-94
2020/12/15 05:28:13;;;;;;;11.07;6.68;;;7.50;99.90;;;;;;4938849;29;20103;-95
2020/12/15 05:30:39;;;;;;;10.02;7.28;;;7.50;99.90;;;;;;4923247;29;20123;-95
2020/12/15 05:33:14;;;;;;;9.80;6.78;;;7.50;99.90;;;;;;4938882;29;20085;-93
2020/12/15 05:35:41;;;;;;;11.32;7.18;;;7.50;99.90;;;;;;4910900;29;20119;-94
2020/12/15 05:38:08;;;;;;;10.93;7.00;;;7.50;99.90;;;;;;4908590;29;20107;-93
2020/12/15 05:40:38;;;;;;;11.75;6.95;;;7.50;99.90;;;;;;4928708;29;20118;-94
2020/12/15 05:43:06;;;;;;;11.02;7.53;;;7.50;99.90;;;;;;4943333;29;20024;-94
2020/12/15 05:45:34;;;;;;;13.27;7.95;;;7.60;99.90;;;;;;4950637;29;20038;-94
2020/12/15 05:48:08;;;;;;;11.18;7.32;;;7.50;99.90;;;;;;4951280;29;20058;-93
2020/12/15 05:50:37;;;;;;;10.52;7.40;;;7.60;99.90;;;;;;4952776;29;20061;-95
2020/12/15 05:53:07;;;;;;;12.95;7.45;;;7.60;99.90;;;;;;4960546;28;20015;-94
2020/12/15 05:55:33;;;;;;;13.45;7.82;;;7.60;99.90;;;;;;4955948;28;20023;-93
2020/12/15 05:58:00;;;;;;;14.65;7.80;;;7.60;99.90;;;;;;4950343;28;20103;-92
2020/12/15 06:00:31;;;;;;;15.15;8.80;;;7.60;99.90;;;;;;4957869;29;20087;-94
2020/12/15 06:03:08;;;;;;;13.68;8.15;;;7.60;99.90;;;;;;4940827;29;20063;-92
2020/12/15 06:05:36;;;;;;;14.30;8.43;;;7.60;99.90;;;;;;4930002;29;20051;-92
2020/12/15 06:08:03;;;;;;;13.90;9.13;;;7.60;99.90;;;;;;4965247;28;20028;-93
2020/12/15 06:10:30;;;;;;;14.20;8.35;;;7.60;99.90;;;;;;4933474;29;20365;-92
2020/12/15 06:12:58;;;;;;;13.07;8.75;;;7.60;99.90;;;;;;4945670;29;20138;-93
2020/12/15 06:15:24;;;;;;;14.88;9.00;;;7.60;99.90;;;;;;4922557;29;20076;-93
2020/12/15 06:17:57;;;;;;;11.88;8.18;;;7.70;99.90;;;;;;4941746;29;20050;-94
2020/12/15 06:20:25;;;;;;;15.13;10.02;;;7.60;99.90;;;;;;4948767;29;20032;-96
2020/12/15 06:23:00;;;;;;;14.10;9.20;;;7.70;99.90;;;;;;4948281;29;20464;-95
2020/12/15 06:25:35;;;;;;;14.23;10.15;;;7.70;99.90;;;;;;4948408;29;20027;-94
2020/12/15 06:28:12;;;;;;;17.45;10.20;;;7.70;99.90;;;;;;4964994;29;20342;-94
2020/12/15 06:30:45;;;;;;;17.38;9.25;;;7.70;99.90;;;;;;4943894;29;20031;-94
2020/12/15 06:33:13;;;;;;;13.77;10.07;;;7.70;99.90;;;;;;4940967;29;20059;-94
2020/12/15 06:35:43;;;;;;;15.95;9.95;;;7.70;99.90;;;;;;4929928;29;20099;-94
2020/12/15 06:38:20;;;;;;;14.88;8.95;;;7.70;99.90;;;;;;4946254;29;20401;-95
2020/12/15 06:40:47;;;;;;;14.43;10.10;;;7.70;99.90;;;;;;4947741;29;20027;-94
2020/12/15 06:43:27;;;;;;;17.77;10.65;;;7.70;99.90;;;;;;4935867;29;20028;-94
2020/12/15 06:46:10;;;;;;;19.95;11.02;;;7.70;99.90;;;;;;4926421;29;20059;-94
2020/12/15 06:48:37;;;;;;;20.05;12.10;;;7.70;99.90;;;;;;4964252;29;20031;-95
2020/12/15 06:51:10;;;;;;;20.67;12.13;;;7.80;99.90;;;;;;4965326;29;20023;-94
2020/12/15 06:53:51;;;;;;;18.55;11.75;;;7.80;99.90;;;;;;4936900;29;20039;-95
2020/12/15 06:56:30;;;;;;;19.20;12.75;;;7.80;99.90;;;;;;4957693;28;20031;-93
2020/12/15 06:59:09;;;;;;;20.30;11.32;;;7.80;99.90;;;;;;4964154;28;20156;-94
2020/12/15 07:01:37;;;;;;;16.80;11.55;;;7.80;99.90;;;;;;5032442;23;20290;-91
2020/12/15 07:04:09;;;;;;;17.95;12.07;;;7.80;99.90;;;;;;4981912;28;20057;-93
2020/12/15 07:07:00;;;;;;;;;;;7.90;99.90;;;;;;4982968;28;20041;-93
2020/12/15 07:09:30;;;;;;;17.00;10.55;;;7.90;99.90;;;;;;4930454;29;19934;-94
2020/12/15 07:12:03;;;;;;;15.85;10.93;;;7.90;99.90;;;;;;4941050;29;20025;-94
2020/12/15 07:14:35;;;;;;;14.77;10.82;;;7.90;99.90;;;;;;4924773;29;20016;-95
2020/12/15 07:17:06;;;;;;;18.42;12.05;;;7.90;99.90;;;;;;4972616;23;20043;-92
2020/12/15 07:22:10;;;;;;;23.27;13.02;;;7.90;99.90;;;;;;5039138;23;20082;-94
2020/12/15 07:24:39;;;;;;;19.48;12.70;;;7.90;99.90;;;;;;4955323;29;20026;-93
2020/12/15 07:27:09;;;;;;;20.63;12.38;;;7.90;99.90;;;;;;4957933;29;20050;-93
2020/12/15 07:29:36;;;;;;;17.50;12.38;;;7.90;99.90;;;;;;4955675;29;20027;-93
2020/12/15 07:32:11;;;;;;;18.40;12.35;;;8.00;99.90;;;;;;4954206;29;20054;-94
2020/12/15 07:34:40;;;;;;;19.90;13.35;;;8.00;99.90;;;;;;4969865;29;20035;-94
2020/12/15 07:37:06;;;;;;;20.98;12.38;;;8.00;99.90;;;;;;4959536;28;20047;-93
2020/12/15 07:39:35;;;;;;;17.70;12.57;;;8.00;99.90;;;;;;4959004;29;20035;-94
2020/12/15 07:42:04;;;;;;;20.00;12.75;;;8.00;99.90;;;;;;4940073;29;20110;-95
2020/12/15 07:49:43;;;;;;;19.17;13.15;;;8.10;99.90;;;;;;4995997;28;20061;-95
2020/12/15 07:55:21;;;;;;;16.55;11.63;;;8.10;99.90;;;;;;5171357;23;20079;-93
2020/12/15 07:57:57;;;;;;;17.67;11.70;;;8.10;99.90;;;;;;4998627;28;20077;-94
2020/12/15 08:00:27;;;;;;;18.33;11.88;;;8.10;99.90;;;;;;4981820;28;20015;-95
2020/12/15 08:03:15;;;;;;;;;;;;;;;;;;;;;
2020/12/15 08:05:47;;;;;;;27.48;14.80;;;8.10;99.90;;;;;;4960660;29;20047;-94
2020/12/15 08:08:20;;;;;;;19.92;13.93;;;8.10;99.90;;;;;;4969781;28;20066;-95
2020/12/15 08:10:46;;;;;;;19.95;12.82;;;8.10;99.90;;;;;;5177506;23;20173;-93
2020/12/15 08:16:10;;;;;;;18.80;12.63;;;8.10;99.90;;;;;;5552970;23;20067;-92
2020/12/15 08:18:59;;;;;;;22.63;13.55;;;8.10;99.90;;;;;;5233112;23;20402;-95
2020/12/15 08:22:23;;;;;;;;;;;;;;;;;;;;;
2020/12/15 08:40:22;;;;;;;20.25;12.93;;;8.20;99.90;;;;;;4985255;28;20173;-92
2020/12/15 08:42:50;;;;;;;23.80;14.73;;;8.20;99.90;;;;;;4985645;28;20027;-93
2020/12/15 08:45:26;;;;;;;20.27;13.93;;;8.30;99.90;;;;;;4951013;29;20043;-92
2020/12/15 08:48:01;;;;;;;18.38;13.10;;;8.30;99.90;;;;;;4927101;29;20032;-92
2020/12/15 09:11:52;;;;;;;14.70;10.27;;;8.40;99.90;;;;;;4965820;29;20051;-93
2020/12/15 09:14:22;;;;;;;20.88;13.73;;;8.50;99.90;;;;;;4947765;29;20104;-94
2020/12/15 09:16:51;;;;;;;23.60;13.77;;;8.40;99.90;;;;;;4910522;29;20032;-90
2020/12/15 09:19:42;;;;;;;19.08;12.90;;;8.50;99.90;;;;;;4949256;29;20091;-91
2020/12/15 09:22:14;;;;;;;20.55;13.95;;;8.50;99.90;;;;;;4896818;29;20180;-91
2020/12/15 09:25:07;;;;;;;25.48;14.90;;;8.50;99.90;;;;;;4889217;29;20051;-91
2020/12/15 09:27:39;;;;;;;22.23;14.50;;;8.60;99.90;;;;;;4892597;29;20037;-92
2020/12/15 09:30:05;;;;;;;19.33;13.07;;;8.60;99.90;;;;;;4906626;29;20040;-91
2020/12/15 09:32:40;;;;;;;18.83;13.40;;;8.70;99.90;;;;;;4894992;29;20029;-92
2020/12/15 09:35:24;;;;;;;;;;;;;;;;;;;;;
2020/12/15 09:38:39;;;;;;;19.38;13.50;;;8.70;99.90;;;;;;4884082;29;20068;-95
2020/12/15 09:41:25;;;;;;;17.00;11.70;;;8.70;99.90;;;;;;4885734;29;20028;-92
2020/12/15 09:44:21;;;;;;;17.80;12.43;;;8.60;99.90;;;;;;4899071;29;20048;-92
2020/12/15 09:47:04;;;;;;;19.55;13.45;;;8.70;99.90;;;;;;4925191;29;20062;-93
2020/12/15 09:50:51;;;;;;;;;;;;;;;;;;;;;
2020/12/15 09:53:13;;;;;;;16.63;12.27;;;8.80;99.90;;;;;;4964667;29;20051;-94
2020/12/15 09:56:00;;;;;;;;;;;;;;;;;;;;;
2020/12/15 09:58:59;;;;;;;19.60;12.77;;;8.80;99.90;;;;;;4914189;29;20120;-94
2020/12/15 10:02:07;;;;;;;16.77;11.63;;;8.90;99.90;;;;;;4931255;29;20032;-93
2020/12/15 10:04:40;;;;;;;19.48;12.30;;;8.80;99.90;;;;;;4855411;29;20052;-94
2020/12/15 10:07:17;;;;;;;20.80;12.80;;;8.80;99.90;;;;;;4846236;29;20033;-95
2020/12/15 10:09:57;;;;;;;16.73;11.45;;;8.90;99.90;;;;;;4861038;29;20376;-93
2020/12/15 10:16:24;;;;;;;25.92;12.00;;;9.00;99.90;;;;;;4790757;30;20097;-91
2020/12/15 10:19:21;;;;;;;18.85;11.63;;;9.00;99.90;;;;;;4773508;29;20080;-91
2020/12/15 10:22:05;;;;;;;21.42;11.80;;;9.00;99.90;;;;;;4799708;30;20041;-94
2020/12/15 10:24:35;;;;;;;17.35;11.73;;;9.00;99.90;;;;;;4777310;30;20044;-91
2020/12/15 10:30:14;;;;;;;16.15;11.50;;;9.00;99.90;;;;;;5099096;23;20401;-91
2020/12/15 10:33:43;;;;;;;17.95;12.18;;;9.10;99.90;;;;;;4940505;29;20047;-91
2020/12/15 10:36:16;;;;;;;18.55;12.43;;;9.10;99.90;;;;;;4863847;29;20045;-93
2020/12/15 10:38:46;;;;;;;20.63;13.82;;;9.10;99.90;;;;;;4879393;29;20052;-92
2020/12/15 10:41:26;;;;;;;17.13;11.60;;;9.10;99.90;;;;;;4860126;29;20551;-91
2020/12/15 10:44:20;;;;;;;17.75;11.60;;;9.20;99.90;;;;;;4853868;29;20033;-92
2020/12/15 10:50:18;;;;;;;;;;;;;;;;;;;;;
2020/12/15 10:53:44;;;;;;;16.23;11.48;;;9.20;99.90;;;;;;4856188;29;20120;-91
2020/12/15 10:56:28;;;;;;;18.77;11.73;;;9.20;99.90;;;;;;4795657;29;20129;-90
2020/12/15 10:59:29;;;;;;;20.23;12.65;;;9.20;99.90;;;;;;4787811;29;20150;-89
2020/12/15 11:02:03;;;;;;;17.48;11.93;;;9.20;99.90;;;;;;4771180;29;20542;-90
2020/12/15 11:04:53;;;;;;;14.63;9.95;;;9.20;99.90;;;;;;4798105;29;20032;-90
2020/12/15 11:07:32;;;;;;;17.52;11.57;;;9.20;99.90;;;;;;4797947;29;20039;-89
2020/12/15 11:11:03;;;;;;;;;;;;;;;;;;;;;
2020/12/15 11:13:41;;;;;;;17.63;11.65;;;9.20;99.90;;;;;;4811144;29;20046;-90
2020/12/15 11:16:07;;;;;;;16.85;11.93;;;9.30;99.90;;;;;;4804303;29;20115;-90
2020/12/15 11:18:36;;;;;;;15.70;11.00;;;9.30;99.90;;;;;;4802393;29;20047;-91
2020/12/15 11:24:37;;;;;;;16.27;11.43;;;9.30;99.90;;;;;;4836304;29;20033;-91
2020/12/15 11:27:41;;;;;;;15.98;11.80;;;9.30;99.90;;;;;;4850501;29;20080;-91
2020/12/15 11:30:52;;;;;;;;;;;;;;;;;;;;;
2020/12/15 11:57:52;;;;;;;18.23;12.88;;;9.50;99.90;;;;;;4985502;28;20062;-96
2020/12/15 12:00:31;;;;;;;24.45;11.98;;;9.50;99.90;;;;;;5168292;23;20040;-91
2020/12/15 12:08:42;;;;;;;17.52;11.88;;;9.40;99.90;;;;;;5025628;23;20055;-95
2020/12/15 12:16:49;;;;;;;18.92;12.63;;;9.40;99.90;;;;;;5598861;23;20043;-90
2020/12/15 12:19:16;;;;;;;20.42;12.40;;;9.40;99.90;;;;;;5291019;23;2128396;-90
2020/12/15 12:51:33;;;;;;;23.70;13.88;;;9.60;99.90;;;;;;5371874;23;20421;-91
2020/12/15 12:54:04;;;;;;;25.95;15.32;;;9.60;99.90;;;;;;4898739;29;20052;-89
2020/12/15 12:56:44;;;;;;;23.25;13.85;;;9.60;99.90;;;;;;4901351;29;20326;-90
2020/12/15 13:02:26;;;;;;;23.48;16.48;;;9.60;99.90;;;;;;4880452;29;20048;-91
2020/12/15 13:06:01;;;;;;;19.52;12.80;;;9.60;99.90;;;;;;4899519;29;20111;-93
2020/12/15 13:08:52;;;;;;;24.15;13.85;;;9.60;99.90;;;;;;4920551;29;20478;-92
2020/12/15 13:14:45;;;;;;;22.33;14.25;;;9.60;99.90;;;;;;4835851;29;20267;-90
2020/12/15 13:17:28;;;;;;;21.58;14.18;;;9.50;99.90;;;;;;4791325;29;20051;-88
2020/12/15 13:19:58;;;;;;;21.80;13.98;;;9.50;99.90;;;;;;4824408;29;20130;-91
2020/12/15 13:22:57;;;;;;;23.63;15.02;;;9.50;99.90;;;;;;4830337;29;20110;-93
2020/12/15 13:25:47;;;;;;;23.77;14.23;;;9.50;99.90;;;;;;4827901;29;20041;-91
2020/12/15 13:28:18;;;;;;;22.23;14.15;;;9.50;99.90;;;;;;4799389;29;20034;-91
2020/12/15 13:30:47;;;;;;;26.58;16.85;;;9.50;99.90;;;;;;4848671;29;20026;-93
2020/12/15 13:36:49;;;;;;;20.67;14.38;;;9.50;99.90;;;;;;4994408;23;20039;-92
2020/12/15 13:39:25;;;;;;;25.08;14.50;;;9.50;99.90;;;;;;4919252;29;20047;-90
2020/12/15 13:41:51;;;;;;;24.08;15.55;;;9.50;99.90;;;;;;4912834;29;20103;-92
2020/12/15 13:49:45;;;;;;;23.30;15.73;;;9.50;99.90;;;;;;4993718;28;20043;-95
2020/12/15 14:22:03;;;;;;;23.80;16.02;;;9.70;99.90;;;;;;5519113;23;20043;-89
2020/12/15 14:24:29;;;;;;;23.45;15.25;;;9.70;99.90;;;;;;4958099;28;20038;-89
2020/12/15 14:26:56;;;;;;;22.08;14.55;;;9.60;99.90;;;;;;4933133;29;20032;-90
2020/12/15 15:47:38;;;;;;;25.30;16.30;;;9.60;99.90;;;;;;5056724;23;20055;-91
2020/12/15 16:22:24;;;;;;;23.02;14.60;;;9.50;99.90;;;;;;5263954;23;20092;-96
2020/12/15 16:28:19;;;;;;;26.05;16.02;;;9.50;99.90;;;;;;5243945;23;20050;-95
2020/12/15 16:31:16;;;;;;;24.58;14.35;;;9.50;99.90;;;;;;4971773;29;20038;-96
2020/12/15 18:02:41;;;;;;;;;;;;;;;;;;;;;
2020/12/15 18:57:28;;;;;;;55.97;27.30;;;8.10;99.90;;;;;;5029054;23;20095;-80
2020/12/15 18:59:54;;;;;;;56.28;28.80;;;8.10;99.90;;;;;;4927437;29;20311;-81
2020/12/15 19:02:22;;;;;;;37.78;21.95;;;8.10;99.90;;;;;;4935287;29;20042;-81
2020/12/15 19:04:48;;;;;;;38.03;21.48;;;8.10;99.90;;;;;;4936258;29;20481;-82
2020/12/15 19:07:14;;;;;;;35.35;19.60;;;7.90;99.90;;;;;;4937191;29;20035;-83
2020/12/15 19:09:42;;;;;;;30.02;18.27;;;7.90;99.90;;;;;;4931681;29;20119;-81
2020/12/15 19:12:09;;;;;;;33.25;19.00;;;8.00;99.90;;;;;;4936075;29;20028;-82
2020/12/15 19:14:34;;;;;;;29.77;19.40;;;8.10;99.90;;;;;;4936424;29;20511;-81
2020/12/15 19:17:00;;;;;;;32.60;21.27;;;8.10;99.90;;;;;;4930566;29;20130;-81
2020/12/15 19:19:26;;;;;;;35.00;22.42;;;8.00;99.90;;;;;;4915717;29;20076;-82
2020/12/15 20:05:01;;;;;;;;;;;;;;;;;;;;;
2020/12/15 20:49:26;;;;;;;31.65;19.63;;;7.10;99.90;;;;;;5889862;23;21045;-96
2020/12/15 21:04:59;;;;;;;34.70;21.10;;;7.20;99.90;;;;;;5437149;23;20059;-96
2020/12/15 21:12:46;;;;;;;;;;;;;;;;;;;;;
2020/12/15 21:15:28;;;;;;;35.20;21.10;;;7.10;99.90;;;;;;4961128;28;20043;-95
2020/12/15 21:21:13;;;;;;;;;;;;;;;;;;;;;
2020/12/15 21:24:28;;;;;;;31.80;20.20;;;6.90;99.90;;;;;;4974181;29;20047;-96
2020/12/15 21:27:17;;;;;;;35.60;20.52;;;7.00;99.90;;;;;;5005269;23;20073;-92
2020/12/15 21:41:20;;;;;;;28.33;17.52;;;7.00;99.90;;;;;;4943794;29;20088;-96
2020/12/15 21:49:12;;;;;;;;;;;;;;;;;;;;;
2020/12/15 21:52:39;;;;;;;28.23;18.75;;;6.60;99.90;;;;;;5140878;23;20046;-88
2020/12/15 21:55:06;;;;;;;29.73;18.85;;;6.50;99.90;;;;;;4945534;28;20095;-95
2020/12/15 21:58:20;;;;;;;26.95;18.33;;;6.40;99.90;;;;;;4946367;28;20034;-95
2020/12/15 22:06:52;;;;;;;30.00;18.48;;;6.40;99.90;;;;;;5706152;23;20046;-96
2020/12/15 22:09:37;;;;;;;31.20;19.00;;;6.30;99.90;;;;;;4971441;28;20146;-96
2020/12/15 22:12:12;;;;;;;28.70;17.63;;;6.20;99.90;;;;;;4975896;28;20089;-96
2020/12/15 22:14:45;;;;;;;28.40;18.20;;;6.20;99.90;;;;;;4973695;29;20034;-96
2020/12/15 22:17:16;;;;;;;33.17;18.67;;;6.10;99.90;;;;;;4966233;28;20031;-96
2020/12/15 22:19:46;;;;;;;31.42;17.92;;;6.10;99.90;;;;;;4953460;29;20034;-95
2020/12/15 22:22:18;;;;;;;35.55;21.17;;;6.10;99.90;;;;;;4959942;29;20074;-96
2020/12/15 22:24:46;;;;;;;29.05;19.77;;;6.00;99.90;;;;;;4959637;29;20444;-95
2020/12/15 22:27:14;;;;;;;31.90;19.85;;;6.10;99.90;;;;;;4988653;28;20041;-94
2020/12/15 22:29:42;;;;;;;27.25;18.23;;;6.00;99.90;;;;;;4976426;28;20027;-94
2020/12/15 22:32:43;;;;;;;36.30;20.17;;;6.00;99.90;;;;;;4954184;29;20043;-96
2020/12/15 22:35:09;;;;;;;32.95;19.00;;;6.00;99.90;;;;;;4953320;28;20121;-96
2020/12/15 22:37:35;;;;;;;30.40;20.20;;;6.00;99.90;;;;;;4988831;28;20074;-96
2020/12/15 22:40:03;;;;;;;35.92;18.58;;;6.00;99.90;;;;;;4967899;28;20130;-96
2020/12/15 22:42:51;;;;;;;33.42;18.65;;;5.90;99.90;;;;;;4967073;29;20027;-96
2020/12/15 22:50:26;;;;;;;33.50;18.27;;;5.80;99.90;;;;;;5378469;23;20070;-94
2020/12/15 22:52:54;;;;;;;31.33;20.27;;;5.80;99.90;;;;;;4949439;29;20046;-96
2020/12/15 22:55:21;;;;;;;30.98;20.02;;;5.80;99.90;;;;;;4959326;28;20034;-94
2020/12/15 22:57:46;;;;;;;30.80;18.48;;;5.80;99.90;;;;;;4951976;28;20027;-95
2020/12/15 23:00:23;;;;;;;32.30;17.95;;;5.70;99.90;;;;;;4947562;29;20122;-95
2020/12/15 23:02:53;;;;;;;29.70;17.80;;;5.80;99.90;;;;;;4932049;29;20050;-94
2020/12/15 23:05:19;;;;;;;39.00;20.65;;;5.70;99.90;;;;;;4962359;28;20082;-94
2020/12/15 23:07:45;;;;;;;35.00;20.27;;;5.80;99.90;;;;;;4960641;28;20031;-93
2020/12/15 23:10:11;;;;;;;35.20;20.17;;;5.70;99.90;;;;;;4967500;28;20027;-94
2020/12/15 23:12:37;;;;;;;32.90;20.00;;;5.70;99.90;;;;;;4956443;29;20027;-94
2020/12/15 23:15:04;;;;;;;40.47;21.67;;;5.70;99.90;;;;;;4949669;29;20023;-93
2020/12/15 23:17:58;;;;;;;33.35;20.52;;;5.70;99.90;;;;;;4946667;29;20031;-93
2020/12/15 23:20:26;;;;;;;32.78;20.88;;;5.60;99.90;;;;;;4896238;29;20037;-93
2020/12/15 23:22:53;;;;;;;33.50;19.30;;;5.50;99.90;;;;;;4892303;29;20041;-95
2020/12/15 23:25:22;;;;;;;32.22;20.05;;;5.50;99.90;;;;;;4883106;29;20188;-95
2020/12/15 23:27:47;;;;;;;33.35;20.25;;;5.60;99.90;;;;;;4904730;29;20032;-94
2020/12/15 23:30:16;;;;;;;31.73;18.83;;;5.50;99.90;;;;;;4884585;29;20052;-94
2020/12/15 23:32:47;;;;;;;30.45;19.48;;;5.50;99.90;;;;;;4871886;29;20041;-93
2020/12/15 23:35:15;;;;;;;36.90;22.00;;;5.50;99.90;;;;;;4884239;29;20040;-94
2020/12/15 23:37:41;;;;;;;40.60;22.55;;;5.60;99.90;;;;;;4871446;29;20475;-95
2020/12/15 23:40:11;;;;;;;46.90;28.05;;;5.60;99.90;;;;;;4887907;29;20128;-95
2020/12/15 23:47:47;;;;;;;40.60;24.73;;;6.10;99.90;;;;;;5814039;23;20039;-92
2020/12/15 23:50:14;;;;;;;52.40;26.77;;;6.30;99.90;;;;;;4964295;28;20027;-96
2020/12/15 23:52:45;;;;;;;44.30;26.17;;;6.40;99.90;;;;;;4954790;29;20049;-95
2020/12/15 23:55:12;;;;;;;46.80;26.80;;;6.60;99.90;;;;;;4900076;29;20040;-94
2020/12/15 23:57:38;;;;;;;45.22;26.35;;;6.70;99.90;;;;;;4947021;29;20103;-95
